sensor_id;sensor_type;location;lat;lon;timestamp;P1;durP1;ratioP1;P2;durP2;ratioP2
10845;SDS011;5476;51.540;7.186;2023-09-19T00:00:15;6.10;;;2.72;;
10845;SDS011;5476;51.540;7.186;2023-09-19T00:02:56;6.38;;;2.85;;
10845;SDS011;5476;51.540;7.186;2023-09-19T00:19:04;7.72;;;2.63;;
10845;SDS011;5476;51.540;7.186;2023-09-19T00:21:56;13.43;;;3.45;;
10845;SDS011;5476;51.540;7.186;2023-09-19T00:25:05;9.27;;;2.90;;
10845;SDS011;5476;51.540;7.186;2023-09-19T00:27:57;6.22;;;2.53;;
10845;SDS011;5476;51.540;7.186;2023-09-19T00:32:38;9.32;;;2.83;;
10845;SDS011;5476;51.540;7.186;2023-09-19T00:34:26;9.20;;;2.40;;
10845;SDS011;5476;51.540;7.186;2023-09-19T00:44:02;7.32;;;2.92;;
10845;SDS011;5476;51.540;7.186;2023-09-19T00:46:48;7.50;;;2.55;;
10845;SDS011;5476;51.540;7.186;2023-09-19T00:49:22;10.18;;;2.90;;
10845;SDS011;5476;51.540;7.186;2023-09-19T01:02:47;9.73;;;3.00;;
10845;SDS011;5476;51.540;7.186;2023-09-19T01:05:33;8.85;;;2.83;;
10845;SDS011;5476;51.540;7.186;2023-09-19T01:14:20;7.80;;;2.55;;
10845;SDS011;5476;51.540;7.186;2023-09-19T01:31:08;7.78;;;2.92;;
10845;SDS011;5476;51.540;7.186;2023-09-19T01:37:31;7.10;;;2.47;;
10845;SDS011;5476;51.540;7.186;2023-09-19T01:40:14;9.38;;;2.90;;
10845;SDS011;5476;51.540;7.186;2023-09-19T01:43:12;8.35;;;2.90;;
10845;SDS011;5476;51.540;7.186;2023-09-19T01:49:33;7.78;;;2.72;;
10845;SDS011;5476;51.540;7.186;2023-09-19T01:52:27;13.80;;;3.38;;
10845;SDS011;5476;51.540;7.186;2023-09-19T01:55:05;13.65;;;3.05;;
10845;SDS011;5476;51.540;7.186;2023-09-19T01:58:20;6.93;;;2.40;;
10845;SDS011;5476;51.540;7.186;2023-09-19T02:01:17;8.50;;;2.42;;
10845;SDS011;5476;51.540;7.186;2023-09-19T02:04:04;8.77;;;2.58;;
10845;SDS011;5476;51.540;7.186;2023-09-19T02:06:50;10.05;;;2.50;;
10845;SDS011;5476;51.540;7.186;2023-09-19T02:09:30;11.00;;;2.60;;
10845;SDS011;5476;51.540;7.186;2023-09-19T02:12:14;6.88;;;2.45;;
10845;SDS011;5476;51.540;7.186;2023-09-19T02:15:30;7.60;;;2.67;;
10845;SDS011;5476;51.540;7.186;2023-09-19T02:18:07;9.13;;;3.13;;
10845;SDS011;5476;51.540;7.186;2023-09-19T02:20:41;10.15;;;2.90;;
10845;SDS011;5476;51.540;7.186;2023-09-19T02:23:47;7.55;;;2.58;;
10845;SDS011;5476;51.540;7.186;2023-09-19T02:27:04;8.80;;;2.63;;
10845;SDS011;5476;51.540;7.186;2023-09-19T02:33:34;10.60;;;3.00;;
10845;SDS011;5476;51.540;7.186;2023-09-19T02:40:19;9.35;;;2.50;;
10845;SDS011;5476;51.540;7.186;2023-09-19T02:59:23;9.73;;;3.40;;
10845;SDS011;5476;51.540;7.186;2023-09-19T03:02:10;13.65;;;3.10;;
10845;SDS011;5476;51.540;7.186;2023-09-19T03:04:55;10.02;;;2.70;;
10845;SDS011;5476;51.540;7.186;2023-09-19T03:10:58;10.75;;;3.03;;
10845;SDS011;5476;51.540;7.186;2023-09-19T03:13:51;8.45;;;2.50;;
10845;SDS011;5476;51.540;7.186;2023-09-19T03:16:32;13.43;;;3.13;;
10845;SDS011;5476;51.540;7.186;2023-09-19T03:19:45;10.98;;;2.72;;
10845;SDS011;5476;51.540;7.186;2023-09-19T03:22:10;10.82;;;3.20;;
10845;SDS011;5476;51.540;7.186;2023-09-19T03:25:00;11.32;;;2.70;;
10845;SDS011;5476;51.540;7.186;2023-09-19T03:28:06;8.48;;;2.42;;
10845;SDS011;5476;51.540;7.186;2023-09-19T03:37:18;10.68;;;2.58;;
10845;SDS011;5476;51.540;7.186;2023-09-19T03:40:23;11.10;;;2.63;;
10845;SDS011;5476;51.540;7.186;2023-09-19T03:42:51;6.97;;;2.63;;
10845;SDS011;5476;51.540;7.186;2023-09-19T03:45:27;15.43;;;2.80;;
10845;SDS011;5476;51.540;7.186;2023-09-19T03:48:14;10.93;;;3.17;;
10845;SDS011;5476;51.540;7.186;2023-09-19T03:53:39;7.55;;;3.03;;
10845;SDS011;5476;51.540;7.186;2023-09-19T03:56:08;7.68;;;2.78;;
10845;SDS011;5476;51.540;7.186;2023-09-19T03:58:48;11.82;;;2.72;;
10845;SDS011;5476;51.540;7.186;2023-09-19T04:01:30;13.07;;;2.78;;
10845;SDS011;5476;51.540;7.186;2023-09-19T04:04:28;10.15;;;2.67;;
10845;SDS011;5476;51.540;7.186;2023-09-19T04:07:43;8.02;;;2.40;;
10845;SDS011;5476;51.540;7.186;2023-09-19T04:10:31;11.18;;;2.63;;
10845;SDS011;5476;51.540;7.186;2023-09-19T04:13:16;5.80;;;2.42;;
10845;SDS011;5476;51.540;7.186;2023-09-19T04:16:06;8.70;;;2.50;;
10845;SDS011;5476;51.540;7.186;2023-09-19T07:16:01;6.57;;;2.40;;
10845;SDS011;5476;51.540;7.186;2023-09-19T07:18:28;5.70;;;2.15;;
10845;SDS011;5476;51.540;7.186;2023-09-19T07:21:05;9.77;;;2.17;;
10845;SDS011;5476;51.540;7.186;2023-09-19T07:23:41;10.85;;;2.75;;
10845;SDS011;5476;51.540;7.186;2023-09-19T07:26:11;10.02;;;2.65;;
10845;SDS011;5476;51.540;7.186;2023-09-19T07:28:38;10.43;;;2.55;;
10845;SDS011;5476;51.540;7.186;2023-09-19T07:31:06;13.15;;;2.47;;
10845;SDS011;5476;51.540;7.186;2023-09-19T07:33:35;18.00;;;3.05;;
10845;SDS011;5476;51.540;7.186;2023-09-19T07:36:04;11.73;;;2.78;;
10845;SDS011;5476;51.540;7.186;2023-09-19T07:38:34;6.32;;;2.92;;
10845;SDS011;5476;51.540;7.186;2023-09-19T07:41:05;9.43;;;2.67;;
10845;SDS011;5476;51.540;7.186;2023-09-19T07:43:34;9.90;;;2.42;;
10845;SDS011;5476;51.540;7.186;2023-09-19T07:46:17;10.25;;;3.00;;
10845;SDS011;5476;51.540;7.186;2023-09-19T07:48:46;8.20;;;2.50;;
10845;SDS011;5476;51.540;7.186;2023-09-19T07:51:16;7.97;;;2.72;;
10845;SDS011;5476;51.540;7.186;2023-09-19T07:53:44;10.57;;;2.70;;
10845;SDS011;5476;51.540;7.186;2023-09-19T07:56:11;11.70;;;3.00;;
10845;SDS011;5476;51.540;7.186;2023-09-19T07:58:39;10.50;;;2.83;;
10845;SDS011;5476;51.540;7.186;2023-09-19T08:01:09;11.75;;;3.10;;
10845;SDS011;5476;51.540;7.186;2023-09-19T08:03:39;7.60;;;2.28;;
10845;SDS011;5476;51.540;7.186;2023-09-19T08:06:10;9.65;;;2.50;;
10845;SDS011;5476;51.540;7.186;2023-09-19T08:08:42;9.73;;;2.63;;
10845;SDS011;5476;51.540;7.186;2023-09-19T08:11:12;13.50;;;2.80;;
10845;SDS011;5476;51.540;7.186;2023-09-19T08:13:46;13.88;;;3.33;;
10845;SDS011;5476;51.540;7.186;2023-09-19T08:16:20;10.00;;;2.42;;
10845;SDS011;5476;51.540;7.186;2023-09-19T08:18:51;11.90;;;2.88;;
10845;SDS011;5476;51.540;7.186;2023-09-19T08:21:20;8.55;;;2.45;;
10845;SDS011;5476;51.540;7.186;2023-09-19T08:23:47;10.70;;;2.53;;
10845;SDS011;5476;51.540;7.186;2023-09-19T08:26:14;8.48;;;2.50;;
10845;SDS011;5476;51.540;7.186;2023-09-19T08:28:42;13.40;;;2.90;;
10845;SDS011;5476;51.540;7.186;2023-09-19T08:31:09;11.30;;;2.70;;
10845;SDS011;5476;51.540;7.186;2023-09-19T08:33:39;13.23;;;2.97;;
10845;SDS011;5476;51.540;7.186;2023-09-19T08:36:09;14.25;;;2.67;;
10845;SDS011;5476;51.540;7.186;2023-09-19T08:38:40;9.05;;;2.70;;
10845;SDS011;5476;51.540;7.186;2023-09-19T08:41:19;10.13;;;2.63;;
10845;SDS011;5476;51.540;7.186;2023-09-19T08:43:46;9.75;;;2.55;;
10845;SDS011;5476;51.540;7.186;2023-09-19T08:46:15;8.20;;;2.58;;
10845;SDS011;5476;51.540;7.186;2023-09-19T08:48:45;11.85;;;2.45;;
10845;SDS011;5476;51.540;7.186;2023-09-19T08:51:21;16.17;;;3.33;;
10845;SDS011;5476;51.540;7.186;2023-09-19T08:53:54;10.85;;;2.70;;
10845;SDS011;5476;51.540;7.186;2023-09-19T08:56:30;10.80;;;2.67;;
10845;SDS011;5476;51.540;7.186;2023-09-19T08:59:06;10.60;;;2.75;;
10845;SDS011;5476;51.540;7.186;2023-09-19T09:01:38;7.63;;;2.35;;
10845;SDS011;5476;51.540;7.186;2023-09-19T09:04:07;11.15;;;2.60;;
10845;SDS011;5476;51.540;7.186;2023-09-19T09:06:39;8.85;;;2.85;;
10845;SDS011;5476;51.540;7.186;2023-09-19T09:09:13;14.07;;;3.28;;
10845;SDS011;5476;51.540;7.186;2023-09-19T09:11:41;8.27;;;2.85;;
10845;SDS011;5476;51.540;7.186;2023-09-19T09:14:08;9.55;;;2.50;;
10845;SDS011;5476;51.540;7.186;2023-09-19T09:16:36;9.30;;;2.60;;
10845;SDS011;5476;51.540;7.186;2023-09-19T09:19:04;9.20;;;2.80;;
10845;SDS011;5476;51.540;7.186;2023-09-19T09:21:36;11.27;;;2.60;;
10845;SDS011;5476;51.540;7.186;2023-09-19T09:27:15;10.73;;;2.97;;
10845;SDS011;5476;51.540;7.186;2023-09-19T09:29:50;9.45;;;2.60;;
10845;SDS011;5476;51.540;7.186;2023-09-19T09:32:23;7.78;;;2.95;;
10845;SDS011;5476;51.540;7.186;2023-09-19T09:35:21;7.85;;;2.70;;
10845;SDS011;5476;51.540;7.186;2023-09-19T09:41:37;6.50;;;2.42;;
10845;SDS011;5476;51.540;7.186;2023-09-19T09:44:12;12.15;;;3.75;;
10845;SDS011;5476;51.540;7.186;2023-09-19T09:46:42;6.63;;;2.33;;
10845;SDS011;5476;51.540;7.186;2023-09-19T09:49:49;13.77;;;5.50;;
10845;SDS011;5476;51.540;7.186;2023-09-19T09:52:45;7.57;;;2.50;;
10845;SDS011;5476;51.540;7.186;2023-09-19T09:55:20;7.93;;;2.65;;
10845;SDS011;5476;51.540;7.186;2023-09-19T09:57:52;10.02;;;2.75;;
10845;SDS011;5476;51.540;7.186;2023-09-19T10:00:52;7.63;;;2.13;;
10845;SDS011;5476;51.540;7.186;2023-09-19T10:03:30;7.72;;;2.35;;
10845;SDS011;5476;51.540;7.186;2023-09-19T10:06:13;10.48;;;2.95;;
10845;SDS011;5476;51.540;7.186;2023-09-19T10:08:59;9.00;;;2.25;;
10845;SDS011;5476;51.540;7.186;2023-09-19T10:11:45;7.80;;;2.70;;
10845;SDS011;5476;51.540;7.186;2023-09-19T10:14:20;10.50;;;3.30;;
10845;SDS011;5476;51.540;7.186;2023-09-19T10:17:05;6.88;;;2.40;;
10845;SDS011;5476;51.540;7.186;2023-09-19T10:19:42;8.13;;;2.25;;
10845;SDS011;5476;51.540;7.186;2023-09-19T10:22:14;10.85;;;2.58;;
10845;SDS011;5476;51.540;7.186;2023-09-19T10:24:41;7.57;;;2.70;;
10845;SDS011;5476;51.540;7.186;2023-09-19T10:27:14;7.03;;;2.70;;
10845;SDS011;5476;51.540;7.186;2023-09-19T10:29:46;10.48;;;2.70;;
10845;SDS011;5476;51.540;7.186;2023-09-19T10:32:16;11.57;;;2.78;;
10845;SDS011;5476;51.540;7.186;2023-09-19T10:34:45;9.57;;;2.83;;
10845;SDS011;5476;51.540;7.186;2023-09-19T10:37:16;8.13;;;2.63;;
10845;SDS011;5476;51.540;7.186;2023-09-19T10:39:45;7.90;;;2.50;;
10845;SDS011;5476;51.540;7.186;2023-09-19T10:42:20;6.18;;;2.40;;
10845;SDS011;5476;51.540;7.186;2023-09-19T10:44:57;7.55;;;2.50;;
10845;SDS011;5476;51.540;7.186;2023-09-19T10:47:33;8.13;;;2.63;;
10845;SDS011;5476;51.540;7.186;2023-09-19T10:50:02;7.57;;;2.47;;
10845;SDS011;5476;51.540;7.186;2023-09-19T10:52:40;8.60;;;2.47;;
10845;SDS011;5476;51.540;7.186;2023-09-19T10:55:32;9.20;;;3.05;;
10845;SDS011;5476;51.540;7.186;2023-09-19T10:58:01;7.43;;;2.40;;
10845;SDS011;5476;51.540;7.186;2023-09-19T11:00:53;8.10;;;2.75;;
10845;SDS011;5476;51.540;7.186;2023-09-19T11:03:27;6.28;;;2.28;;
10845;SDS011;5476;51.540;7.186;2023-09-19T11:06:00;6.20;;;2.28;;
10845;SDS011;5476;51.540;7.186;2023-09-19T11:11:47;6.32;;;2.50;;
10845;SDS011;5476;51.540;7.186;2023-09-19T11:14:41;7.65;;;2.50;;
10845;SDS011;5476;51.540;7.186;2023-09-19T11:23:19;7.43;;;2.30;;
10845;SDS011;5476;51.540;7.186;2023-09-19T11:25:51;7.82;;;2.60;;
10845;SDS011;5476;51.540;7.186;2023-09-19T11:28:29;8.75;;;2.88;;
10845;SDS011;5476;51.540;7.186;2023-09-19T11:34:41;8.55;;;2.50;;
10845;SDS011;5476;51.540;7.186;2023-09-19T11:40:40;8.90;;;2.65;;
10845;SDS011;5476;51.540;7.186;2023-09-19T11:43:45;5.80;;;2.22;;
10845;SDS011;5476;51.540;7.186;2023-09-19T11:46:13;4.95;;;2.28;;
10845;SDS011;5476;51.540;7.186;2023-09-19T11:48:43;6.85;;;2.45;;
10845;SDS011;5476;51.540;7.186;2023-09-19T11:51:12;6.45;;;2.00;;
10845;SDS011;5476;51.540;7.186;2023-09-19T11:53:44;7.25;;;2.30;;
10845;SDS011;5476;51.540;7.186;2023-09-19T11:56:13;6.70;;;2.38;;
10845;SDS011;5476;51.540;7.186;2023-09-19T11:58:42;9.23;;;2.00;;
10845;SDS011;5476;51.540;7.186;2023-09-19T12:01:14;7.63;;;2.30;;
10845;SDS011;5476;51.540;7.186;2023-09-19T12:03:53;6.68;;;2.40;;
10845;SDS011;5476;51.540;7.186;2023-09-19T12:06:25;6.55;;;2.20;;
10845;SDS011;5476;51.540;7.186;2023-09-19T12:08:52;9.98;;;3.00;;
10845;SDS011;5476;51.540;7.186;2023-09-19T12:11:20;5.82;;;2.08;;
10845;SDS011;5476;51.540;7.186;2023-09-19T12:13:49;7.55;;;2.60;;
10845;SDS011;5476;51.540;7.186;2023-09-19T12:16:18;11.40;;;3.67;;
10845;SDS011;5476;51.540;7.186;2023-09-19T12:18:48;6.57;;;3.08;;
10845;SDS011;5476;51.540;7.186;2023-09-19T12:21:28;4.70;;;2.30;;
10845;SDS011;5476;51.540;7.186;2023-09-19T12:24:04;5.38;;;2.33;;
10845;SDS011;5476;51.540;7.186;2023-09-19T12:26:38;5.20;;;1.92;;
10845;SDS011;5476;51.540;7.186;2023-09-19T12:29:11;8.82;;;2.50;;
10845;SDS011;5476;51.540;7.186;2023-09-19T12:31:50;8.10;;;2.65;;
10845;SDS011;5476;51.540;7.186;2023-09-19T12:34:20;5.75;;;2.25;;
10845;SDS011;5476;51.540;7.186;2023-09-19T12:37:06;7.32;;;2.38;;
10845;SDS011;5476;51.540;7.186;2023-09-19T12:39:41;4.90;;;2.35;;
10845;SDS011;5476;51.540;7.186;2023-09-19T12:42:13;4.40;;;2.08;;
10845;SDS011;5476;51.540;7.186;2023-09-19T12:44:43;12.85;;;8.18;;
10845;SDS011;5476;51.540;7.186;2023-09-19T12:47:13;7.15;;;2.88;;
10845;SDS011;5476;51.540;7.186;2023-09-19T12:52:45;11.55;;;4.32;;
10845;SDS011;5476;51.540;7.186;2023-09-19T12:55:20;4.40;;;2.22;;
10845;SDS011;5476;51.540;7.186;2023-09-19T12:57:55;5.38;;;1.90;;
10845;SDS011;5476;51.540;7.186;2023-09-19T13:00:31;7.72;;;2.90;;
10845;SDS011;5476;51.540;7.186;2023-09-19T13:03:13;5.25;;;1.80;;
10845;SDS011;5476;51.540;7.186;2023-09-19T13:05:46;3.92;;;1.98;;
10845;SDS011;5476;51.540;7.186;2023-09-19T13:08:20;5.75;;;2.15;;
10845;SDS011;5476;51.540;7.186;2023-09-19T13:11:01;6.60;;;2.15;;
10845;SDS011;5476;51.540;7.186;2023-09-19T13:13:35;5.75;;;1.90;;
10845;SDS011;5476;51.540;7.186;2023-09-19T13:16:03;4.35;;;1.85;;
10845;SDS011;5476;51.540;7.186;2023-09-19T13:18:41;6.07;;;2.65;;
10845;SDS011;5476;51.540;7.186;2023-09-19T13:21:10;5.78;;;2.25;;
10845;SDS011;5476;51.540;7.186;2023-09-19T13:23:42;5.20;;;2.20;;
10845;SDS011;5476;51.540;7.186;2023-09-19T13:26:09;8.57;;;3.15;;
10845;SDS011;5476;51.540;7.186;2023-09-19T13:28:46;6.90;;;2.17;;
10845;SDS011;5476;51.540;7.186;2023-09-19T13:31:29;5.75;;;2.15;;
10845;SDS011;5476;51.540;7.186;2023-09-19T13:34:19;5.22;;;2.22;;
10845;SDS011;5476;51.540;7.186;2023-09-19T13:36:47;5.53;;;1.95;;
10845;SDS011;5476;51.540;7.186;2023-09-19T13:39:15;4.80;;;2.38;;
10845;SDS011;5476;51.540;7.186;2023-09-19T13:41:43;5.07;;;1.90;;
10845;SDS011;5476;51.540;7.186;2023-09-19T13:44:11;3.22;;;1.70;;
10845;SDS011;5476;51.540;7.186;2023-09-19T13:46:39;2.83;;;1.58;;
10845;SDS011;5476;51.540;7.186;2023-09-19T13:49:09;7.95;;;2.78;;
10845;SDS011;5476;51.540;7.186;2023-09-19T13:51:42;17.48;;;6.63;;
10845;SDS011;5476;51.540;7.186;2023-09-19T13:54:09;4.53;;;3.17;;
10845;SDS011;5476;51.540;7.186;2023-09-19T13:56:39;3.58;;;1.38;;
10845;SDS011;5476;51.540;7.186;2023-09-19T13:59:06;4.38;;;1.80;;
10845;SDS011;5476;51.540;7.186;2023-09-19T14:01:33;7.53;;;2.00;;
10845;SDS011;5476;51.540;7.186;2023-09-19T14:04:00;12.65;;;5.63;;
10845;SDS011;5476;51.540;7.186;2023-09-19T14:06:27;10.93;;;5.40;;
10845;SDS011;5476;51.540;7.186;2023-09-19T14:08:54;8.10;;;2.03;;
10845;SDS011;5476;51.540;7.186;2023-09-19T14:11:21;5.72;;;1.70;;
10845;SDS011;5476;51.540;7.186;2023-09-19T14:13:53;3.35;;;1.60;;
10845;SDS011;5476;51.540;7.186;2023-09-19T14:19:04;3.00;;;1.63;;
10845;SDS011;5476;51.540;7.186;2023-09-19T14:21:33;4.82;;;1.60;;
10845;SDS011;5476;51.540;7.186;2023-09-19T14:24:01;5.53;;;1.60;;
10845;SDS011;5476;51.540;7.186;2023-09-19T14:26:29;5.03;;;1.50;;
10845;SDS011;5476;51.540;7.186;2023-09-19T14:28:57;5.43;;;1.50;;
10845;SDS011;5476;51.540;7.186;2023-09-19T14:31:25;7.30;;;2.17;;
10845;SDS011;5476;51.540;7.186;2023-09-19T14:33:53;6.10;;;1.80;;
10845;SDS011;5476;51.540;7.186;2023-09-19T14:36:21;3.45;;;1.27;;
10845;SDS011;5476;51.540;7.186;2023-09-19T14:39:00;3.28;;;1.45;;
10845;SDS011;5476;51.540;7.186;2023-09-19T14:41:27;3.58;;;1.20;;
10845;SDS011;5476;51.540;7.186;2023-09-19T14:43:57;3.35;;;1.40;;
10845;SDS011;5476;51.540;7.186;2023-09-19T14:46:24;4.00;;;1.40;;
10845;SDS011;5476;51.540;7.186;2023-09-19T14:48:51;4.43;;;1.48;;
10845;SDS011;5476;51.540;7.186;2023-09-19T14:51:18;5.72;;;1.60;;
10845;SDS011;5476;51.540;7.186;2023-09-19T14:53:45;5.03;;;1.70;;
10845;SDS011;5476;51.540;7.186;2023-09-19T14:56:13;2.63;;;1.20;;
10845;SDS011;5476;51.540;7.186;2023-09-19T14:58:43;4.20;;;1.33;;
10845;SDS011;5476;51.540;7.186;2023-09-19T15:01:13;3.05;;;1.50;;
10845;SDS011;5476;51.540;7.186;2023-09-19T15:03:41;4.68;;;1.58;;
10845;SDS011;5476;51.540;7.186;2023-09-19T15:06:09;5.28;;;1.50;;
10845;SDS011;5476;51.540;7.186;2023-09-19T15:08:39;6.22;;;1.92;;
10845;SDS011;5476;51.540;7.186;2023-09-19T15:11:11;3.58;;;1.30;;
10845;SDS011;5476;51.540;7.186;2023-09-19T15:13:38;2.20;;;1.20;;
10845;SDS011;5476;51.540;7.186;2023-09-19T15:16:06;5.15;;;1.40;;
10845;SDS011;5476;51.540;7.186;2023-09-19T15:18:38;4.68;;;1.30;;
10845;SDS011;5476;51.540;7.186;2023-09-19T15:21:07;3.25;;;1.40;;
10845;SDS011;5476;51.540;7.186;2023-09-19T15:23:36;6.47;;;1.50;;
10845;SDS011;5476;51.540;7.186;2023-09-19T15:26:05;7.50;;;1.60;;
10845;SDS011;5476;51.540;7.186;2023-09-19T15:28:33;3.20;;;1.50;;
10845;SDS011;5476;51.540;7.186;2023-09-19T15:31:02;3.22;;;1.60;;
10845;SDS011;5476;51.540;7.186;2023-09-19T15:36:03;5.93;;;1.60;;
10845;SDS011;5476;51.540;7.186;2023-09-19T15:38:31;2.90;;;1.25;;
10845;SDS011;5476;51.540;7.186;2023-09-19T15:41:14;4.95;;;1.35;;
10845;SDS011;5476;51.540;7.186;2023-09-19T15:43:41;2.67;;;1.27;;
10845;SDS011;5476;51.540;7.186;2023-09-19T15:46:11;4.95;;;1.70;;
10845;SDS011;5476;51.540;7.186;2023-09-19T15:48:39;2.40;;;1.20;;
10845;SDS011;5476;51.540;7.186;2023-09-19T15:51:07;3.00;;;1.13;;
10845;SDS011;5476;51.540;7.186;2023-09-19T15:53:44;2.63;;;1.20;;
10845;SDS011;5476;51.540;7.186;2023-09-19T15:56:16;4.10;;;1.45;;
10845;SDS011;5476;51.540;7.186;2023-09-19T15:58:46;3.40;;;1.20;;
10845;SDS011;5476;51.540;7.186;2023-09-19T16:01:14;3.90;;;0.98;;
10845;SDS011;5476;51.540;7.186;2023-09-19T16:03:43;3.42;;;1.40;;
10845;SDS011;5476;51.540;7.186;2023-09-19T16:06:15;5.95;;;1.60;;
10845;SDS011;5476;51.540;7.186;2023-09-19T16:08:44;3.72;;;1.17;;
10845;SDS011;5476;51.540;7.186;2023-09-19T16:11:13;2.85;;;1.33;;
10845;SDS011;5476;51.540;7.186;2023-09-19T16:13:41;5.25;;;1.20;;
10845;SDS011;5476;51.540;7.186;2023-09-19T16:37:17;5.80;;;1.58;;
10845;SDS011;5476;51.540;7.186;2023-09-19T16:39:48;1.77;;;1.10;;
10845;SDS011;5476;51.540;7.186;2023-09-19T16:42:15;2.80;;;1.05;;
10845;SDS011;5476;51.540;7.186;2023-09-19T16:44:45;2.38;;;1.00;;
10845;SDS011;5476;51.540;7.186;2023-09-19T16:47:15;1.75;;;1.20;;
10845;SDS011;5476;51.540;7.186;2023-09-19T16:50:05;2.55;;;1.20;;
10845;SDS011;5476;51.540;7.186;2023-09-19T16:52:36;2.33;;;1.10;;
10845;SDS011;5476;51.540;7.186;2023-09-19T16:55:05;2.38;;;1.10;;
10845;SDS011;5476;51.540;7.186;2023-09-19T16:57:39;2.22;;;1.00;;
10845;SDS011;5476;51.540;7.186;2023-09-19T17:00:16;2.15;;;1.00;;
10845;SDS011;5476;51.540;7.186;2023-09-19T17:02:46;2.03;;;1.33;;
10845;SDS011;5476;51.540;7.186;2023-09-19T17:05:17;4.07;;;1.13;;
10845;SDS011;5476;51.540;7.186;2023-09-19T17:08:01;3.60;;;1.20;;
10845;SDS011;5476;51.540;7.186;2023-09-19T17:10:42;3.70;;;1.13;;
10845;SDS011;5476;51.540;7.186;2023-09-19T17:13:13;1.35;;;1.05;;
10845;SDS011;5476;51.540;7.186;2023-09-19T17:15:42;3.03;;;1.27;;
10845;SDS011;5476;51.540;7.186;2023-09-19T17:18:09;2.92;;;1.20;;
10845;SDS011;5476;51.540;7.186;2023-09-19T17:20:41;3.72;;;1.58;;
10845;SDS011;5476;51.540;7.186;2023-09-19T17:23:09;3.22;;;1.30;;
10845;SDS011;5476;51.540;7.186;2023-09-19T17:25:37;2.70;;;1.30;;
10845;SDS011;5476;51.540;7.186;2023-09-19T17:28:04;3.47;;;1.40;;
10845;SDS011;5476;51.540;7.186;2023-09-19T17:30:31;3.03;;;1.38;;
10845;SDS011;5476;51.540;7.186;2023-09-19T17:32:58;4.10;;;1.20;;
10845;SDS011;5476;51.540;7.186;2023-09-19T17:38:42;4.53;;;1.30;;
10845;SDS011;5476;51.540;7.186;2023-09-19T17:41:37;3.28;;;1.30;;
10845;SDS011;5476;51.540;7.186;2023-09-19T17:47:43;2.28;;;1.45;;
10845;SDS011;5476;51.540;7.186;2023-09-19T17:50:30;2.47;;;0.90;;
10845;SDS011;5476;51.540;7.186;2023-09-19T17:53:01;3.75;;;1.30;;
10845;SDS011;5476;51.540;7.186;2023-09-19T17:55:40;3.15;;;1.65;;
10845;SDS011;5476;51.540;7.186;2023-09-19T17:58:13;3.55;;;1.50;;
10845;SDS011;5476;51.540;7.186;2023-09-19T18:00:55;3.90;;;1.50;;
10845;SDS011;5476;51.540;7.186;2023-09-19T18:03:31;2.72;;;1.52;;
10845;SDS011;5476;51.540;7.186;2023-09-19T18:05:59;3.55;;;1.40;;
10845;SDS011;5476;51.540;7.186;2023-09-19T18:08:50;4.45;;;1.48;;
10845;SDS011;5476;51.540;7.186;2023-09-19T18:11:22;2.58;;;1.35;;
10845;SDS011;5476;51.540;7.186;2023-09-19T18:13:50;3.08;;;1.35;;
10845;SDS011;5476;51.540;7.186;2023-09-19T18:16:19;2.30;;;1.13;;
10845;SDS011;5476;51.540;7.186;2023-09-19T18:18:50;2.58;;;1.33;;
10845;SDS011;5476;51.540;7.186;2023-09-19T18:21:19;4.13;;;1.55;;
10845;SDS011;5476;51.540;7.186;2023-09-19T18:23:51;3.95;;;1.27;;
10845;SDS011;5476;51.540;7.186;2023-09-19T18:26:28;3.88;;;1.60;;
10845;SDS011;5476;51.540;7.186;2023-09-19T18:28:56;3.13;;;1.25;;
10845;SDS011;5476;51.540;7.186;2023-09-19T18:31:24;3.65;;;1.45;;
10845;SDS011;5476;51.540;7.186;2023-09-19T18:33:55;3.28;;;1.40;;
10845;SDS011;5476;51.540;7.186;2023-09-19T18:36:31;3.10;;;1.38;;
10845;SDS011;5476;51.540;7.186;2023-09-19T18:39:20;4.47;;;1.42;;
10845;SDS011;5476;51.540;7.186;2023-09-19T18:41:52;1.70;;;1.13;;
10845;SDS011;5476;51.540;7.186;2023-09-19T18:44:19;5.35;;;1.60;;
10845;SDS011;5476;51.540;7.186;2023-09-19T18:46:51;4.43;;;1.98;;
10845;SDS011;5476;51.540;7.186;2023-09-19T18:49:31;2.47;;;1.40;;
10845;SDS011;5476;51.540;7.186;2023-09-19T18:51:59;4.80;;;1.58;;
10845;SDS011;5476;51.540;7.186;2023-09-19T18:54:30;4.05;;;1.38;;
10845;SDS011;5476;51.540;7.186;2023-09-19T18:57:05;5.00;;;1.60;;
10845;SDS011;5476;51.540;7.186;2023-09-19T18:59:32;2.08;;;1.38;;
10845;SDS011;5476;51.540;7.186;2023-09-19T19:02:00;4.75;;;1.60;;
10845;SDS011;5476;51.540;7.186;2023-09-19T19:04:28;2.45;;;1.30;;
10845;SDS011;5476;51.540;7.186;2023-09-19T19:06:55;3.63;;;1.45;;
10845;SDS011;5476;51.540;7.186;2023-09-19T19:09:24;2.80;;;1.48;;
10845;SDS011;5476;51.540;7.186;2023-09-19T19:11:51;3.78;;;1.40;;
10845;SDS011;5476;51.540;7.186;2023-09-19T19:14:23;4.57;;;1.60;;
10845;SDS011;5476;51.540;7.186;2023-09-19T19:16:54;4.35;;;1.60;;
10845;SDS011;5476;51.540;7.186;2023-09-19T19:19:26;3.03;;;1.40;;
10845;SDS011;5476;51.540;7.186;2023-09-19T19:22:07;2.88;;;1.38;;
10845;SDS011;5476;51.540;7.186;2023-09-19T19:24:35;4.28;;;1.70;;
10845;SDS011;5476;51.540;7.186;2023-09-19T19:27:05;2.22;;;1.70;;
10845;SDS011;5476;51.540;7.186;2023-09-19T19:29:40;2.65;;;1.40;;
10845;SDS011;5476;51.540;7.186;2023-09-19T19:32:10;2.92;;;1.40;;
10845;SDS011;5476;51.540;7.186;2023-09-19T19:34:43;5.70;;;1.63;;
10845;SDS011;5476;51.540;7.186;2023-09-19T19:37:40;4.68;;;1.50;;
10845;SDS011;5476;51.540;7.186;2023-09-19T19:40:13;3.70;;;1.67;;
10845;SDS011;5476;51.540;7.186;2023-09-19T19:42:50;3.60;;;1.60;;
10845;SDS011;5476;51.540;7.186;2023-09-19T19:45:24;4.20;;;1.75;;
10845;SDS011;5476;51.540;7.186;2023-09-19T19:47:54;4.35;;;1.73;;
10845;SDS011;5476;51.540;7.186;2023-09-19T19:50:22;4.75;;;1.83;;
10845;SDS011;5476;51.540;7.186;2023-09-19T19:52:50;2.92;;;1.27;;
10845;SDS011;5476;51.540;7.186;2023-09-19T19:55:18;3.08;;;1.70;;
10845;SDS011;5476;51.540;7.186;2023-09-19T19:57:50;3.03;;;1.48;;
10845;SDS011;5476;51.540;7.186;2023-09-19T20:00:21;4.53;;;1.70;;
10845;SDS011;5476;51.540;7.186;2023-09-19T20:02:49;4.05;;;1.60;;
10845;SDS011;5476;51.540;7.186;2023-09-19T20:05:19;6.85;;;1.90;;
10845;SDS011;5476;51.540;7.186;2023-09-19T20:07:53;4.30;;;1.70;;
10845;SDS011;5476;51.540;7.186;2023-09-19T20:10:25;5.30;;;1.65;;
10845;SDS011;5476;51.540;7.186;2023-09-19T20:12:53;4.15;;;1.90;;
10845;SDS011;5476;51.540;7.186;2023-09-19T20:15:23;4.15;;;1.65;;
10845;SDS011;5476;51.540;7.186;2023-09-19T20:17:53;4.57;;;1.60;;
10845;SDS011;5476;51.540;7.186;2023-09-19T20:20:24;4.30;;;1.80;;
10845;SDS011;5476;51.540;7.186;2023-09-19T20:22:56;4.97;;;1.85;;
10845;SDS011;5476;51.540;7.186;2023-09-19T20:25:24;5.10;;;1.60;;
10845;SDS011;5476;51.540;7.186;2023-09-19T20:27:53;4.35;;;1.70;;
10845;SDS011;5476;51.540;7.186;2023-09-19T20:30:21;3.80;;;1.65;;
10845;SDS011;5476;51.540;7.186;2023-09-19T20:32:49;6.35;;;1.83;;
10845;SDS011;5476;51.540;7.186;2023-09-19T20:35:17;4.60;;;1.65;;
10845;SDS011;5476;51.540;7.186;2023-09-19T20:37:45;4.00;;;1.50;;
10845;SDS011;5476;51.540;7.186;2023-09-19T20:40:15;4.38;;;1.80;;
10845;SDS011;5476;51.540;7.186;2023-09-19T20:42:48;4.53;;;1.80;;
10845;SDS011;5476;51.540;7.186;2023-09-19T20:45:16;6.90;;;1.88;;
10845;SDS011;5476;51.540;7.186;2023-09-19T20:47:44;4.43;;;1.77;;
10845;SDS011;5476;51.540;7.186;2023-09-19T20:50:13;4.35;;;1.73;;
10845;SDS011;5476;51.540;7.186;2023-09-19T20:52:42;4.60;;;1.88;;
10845;SDS011;5476;51.540;7.186;2023-09-19T20:55:09;2.58;;;1.35;;
10845;SDS011;5476;51.540;7.186;2023-09-19T20:57:37;3.83;;;1.80;;
10845;SDS011;5476;51.540;7.186;2023-09-19T21:00:04;4.35;;;2.25;;
10845;SDS011;5476;51.540;7.186;2023-09-19T21:02:35;5.55;;;1.98;;
10845;SDS011;5476;51.540;7.186;2023-09-19T21:05:09;3.67;;;1.55;;
10845;SDS011;5476;51.540;7.186;2023-09-19T21:07:51;4.43;;;1.88;;
10845;SDS011;5476;51.540;7.186;2023-09-19T21:10:18;2.40;;;1.52;;
10845;SDS011;5476;51.540;7.186;2023-09-19T21:12:54;3.90;;;1.88;;
10845;SDS011;5476;51.540;7.186;2023-09-19T21:15:27;3.28;;;1.73;;